sensor_id;sensor_type;location;lat;lon;timestamp;P1;durP1;ratioP1;P2;durP2;ratioP2
28245;SDS011;15510;52.512;13.300;2024-03-02T00:00:19;53.60;;;26.07;;
28245;SDS011;15510;52.512;13.300;2024-03-02T00:02:47;50.17;;;24.33;;
28245;SDS011;15510;52.512;13.300;2024-03-02T00:05:17;47.73;;;27.63;;
28245;SDS011;15510;52.512;13.300;2024-03-02T00:10:22;42.27;;;23.93;;
28245;SDS011;15510;52.512;13.300;2024-03-02T00:12:53;42.93;;;24.50;;
28245;SDS011;15510;52.512;13.300;2024-03-02T00:18:14;39.50;;;23.93;;
28245;SDS011;15510;52.512;13.300;2024-03-02T00:21:02;42.27;;;24.67;;
28245;SDS011;15510;52.512;13.300;2024-03-02T00:23:30;44.13;;;25.90;;
28245;SDS011;15510;52.512;13.300;2024-03-02T00:25:59;48.17;;;26.73;;
28245;SDS011;15510;52.512;13.300;2024-03-02T00:28:36;45.53;;;24.97;;
28245;SDS011;15510;52.512;13.300;2024-03-02T00:31:05;39.47;;;25.40;;
28245;SDS011;15510;52.512;13.300;2024-03-02T00:36:08;43.50;;;25.13;;
28245;SDS011;15510;52.512;13.300;2024-03-02T00:38:36;44.63;;;26.23;;
28245;SDS011;15510;52.512;13.300;2024-03-02T00:41:26;41.10;;;23.23;;
28245;SDS011;15510;52.512;13.300;2024-03-02T00:46:33;42.20;;;26.43;;
28245;SDS011;15510;52.512;13.300;2024-03-02T00:49:27;47.40;;;25.43;;
28245;SDS011;15510;52.512;13.300;2024-03-02T00:51:55;44.63;;;24.83;;
28245;SDS011;15510;52.512;13.300;2024-03-02T00:54:22;44.70;;;25.83;;
28245;SDS011;15510;52.512;13.300;2024-03-02T00:56:51;42.17;;;26.83;;
28245;SDS011;15510;52.512;13.300;2024-03-02T00:59:24;47.23;;;26.53;;
28245;SDS011;15510;52.512;13.300;2024-03-02T01:01:50;46.37;;;26.23;;
28245;SDS011;15510;52.512;13.300;2024-03-02T01:04:18;46.47;;;27.43;;
28245;SDS011;15510;52.512;13.300;2024-03-02T01:06:44;46.57;;;27.17;;
28245;SDS011;15510;52.512;13.300;2024-03-02T01:09:11;47.03;;;27.07;;
28245;SDS011;15510;52.512;13.300;2024-03-02T01:11:39;42.37;;;25.43;;
28245;SDS011;15510;52.512;13.300;2024-03-02T01:14:14;51.17;;;26.83;;
28245;SDS011;15510;52.512;13.300;2024-03-02T01:16:40;48.70;;;27.27;;
28245;SDS011;15510;52.512;13.300;2024-03-02T01:19:07;46.03;;;27.37;;
28245;SDS011;15510;52.512;13.300;2024-03-02T01:21:32;47.40;;;27.57;;
28245;SDS011;15510;52.512;13.300;2024-03-02T01:23:58;47.53;;;27.70;;
28245;SDS011;15510;52.512;13.300;2024-03-02T01:26:27;39.83;;;25.97;;
28245;SDS011;15510;52.512;13.300;2024-03-02T01:29:01;53.23;;;28.63;;
28245;SDS011;15510;52.512;13.300;2024-03-02T01:31:27;49.60;;;28.70;;
28245;SDS011;15510;52.512;13.300;2024-03-02T01:33:53;52.30;;;29.83;;
28245;SDS011;15510;52.512;13.300;2024-03-02T01:36:18;49.10;;;29.90;;
28245;SDS011;15510;52.512;13.300;2024-03-02T01:38:44;54.73;;;29.70;;
28245;SDS011;15510;52.512;13.300;2024-03-02T01:41:10;47.47;;;28.03;;
28245;SDS011;15510;52.512;13.300;2024-03-02T01:43:36;51.03;;;29.70;;
28245;SDS011;15510;52.512;13.300;2024-03-02T01:46:02;51.87;;;29.37;;
28245;SDS011;15510;52.512;13.300;2024-03-02T01:48:28;48.87;;;29.03;;
28245;SDS011;15510;52.512;13.300;2024-03-02T01:50:54;52.87;;;31.07;;
28245;SDS011;15510;52.512;13.300;2024-03-02T01:53:20;53.37;;;29.63;;
28245;SDS011;15510;52.512;13.300;2024-03-02T01:55:46;53.83;;;29.97;;
28245;SDS011;15510;52.512;13.300;2024-03-02T01:58:11;54.57;;;30.90;;
28245;SDS011;15510;52.512;13.300;2024-03-02T02:00:37;46.83;;;30.67;;
28245;SDS011;15510;52.512;13.300;2024-03-02T02:03:03;56.60;;;30.23;;
28245;SDS011;15510;52.512;13.300;2024-03-02T02:05:29;54.07;;;31.97;;
28245;SDS011;15510;52.512;13.300;2024-03-02T02:07:55;56.47;;;32.70;;
28245;SDS011;15510;52.512;13.300;2024-03-02T02:10:23;54.07;;;31.83;;
28245;SDS011;15510;52.512;13.300;2024-03-02T02:12:49;58.87;;;31.97;;
28245;SDS011;15510;52.512;13.300;2024-03-02T02:15:21;56.17;;;31.43;;
28245;SDS011;15510;52.512;13.300;2024-03-02T02:17:48;53.20;;;31.73;;
28245;SDS011;15510;52.512;13.300;2024-03-02T02:20:14;53.63;;;31.47;;
28245;SDS011;15510;52.512;13.300;2024-03-02T02:22:39;53.47;;;31.23;;
28245;SDS011;15510;52.512;13.300;2024-03-02T02:25:05;53.57;;;31.53;;
28245;SDS011;15510;52.512;13.300;2024-03-02T02:27:31;55.73;;;31.80;;
28245;SDS011;15510;52.512;13.300;2024-03-02T02:29:57;56.43;;;31.60;;
28245;SDS011;15510;52.512;13.300;2024-03-02T02:32:22;55.63;;;31.33;;
28245;SDS011;15510;52.512;13.300;2024-03-02T02:34:52;52.27;;;30.37;;
28245;SDS011;15510;52.512;13.300;2024-03-02T02:37:17;54.07;;;31.93;;
28245;SDS011;15510;52.512;13.300;2024-03-02T02:39:43;52.80;;;31.70;;
28245;SDS011;15510;52.512;13.300;2024-03-02T02:42:11;58.93;;;33.77;;
28245;SDS011;15510;52.512;13.300;2024-03-02T02:44:37;55.77;;;33.73;;
28245;SDS011;15510;52.512;13.300;2024-03-02T02:47:03;62.33;;;34.77;;
28245;SDS011;15510;52.512;13.300;2024-03-02T02:49:29;55.93;;;34.23;;
28245;SDS011;15510;52.512;13.300;2024-03-02T02:51:54;61.10;;;34.37;;
28245;SDS011;15510;52.512;13.300;2024-03-02T02:54:20;65.20;;;35.37;;
28245;SDS011;15510;52.512;13.300;2024-03-02T02:56:46;58.90;;;33.47;;
28245;SDS011;15510;52.512;13.300;2024-03-02T02:59:11;55.63;;;33.23;;
28245;SDS011;15510;52.512;13.300;2024-03-02T03:01:37;55.13;;;34.10;;
28245;SDS011;15510;52.512;13.300;2024-03-02T03:04:03;58.33;;;34.97;;
28245;SDS011;15510;52.512;13.300;2024-03-02T03:06:28;57.23;;;34.93;;
28245;SDS011;15510;52.512;13.300;2024-03-02T03:08:54;57.67;;;34.13;;
28245;SDS011;15510;52.512;13.300;2024-03-02T03:11:20;56.20;;;33.73;;
28245;SDS011;15510;52.512;13.300;2024-03-02T03:13:47;54.73;;;32.90;;
28245;SDS011;15510;52.512;13.300;2024-03-02T03:16:13;56.27;;;34.07;;
28245;SDS011;15510;52.512;13.300;2024-03-02T03:18:39;54.27;;;33.90;;
28245;SDS011;15510;52.512;13.300;2024-03-02T03:21:05;57.90;;;32.80;;
28245;SDS011;15510;52.512;13.300;2024-03-02T03:23:31;52.07;;;33.23;;
28245;SDS011;15510;52.512;13.300;2024-03-02T03:25:56;56.22;;;32.17;;
28245;SDS011;15510;52.512;13.300;2024-03-02T03:28:22;52.43;;;31.53;;
28245;SDS011;15510;52.512;13.300;2024-03-02T03:30:48;49.33;;;30.20;;
28245;SDS011;15510;52.512;13.300;2024-03-02T03:33:14;52.13;;;31.77;;
28245;SDS011;15510;52.512;13.300;2024-03-02T03:35:39;53.57;;;32.23;;
28245;SDS011;15510;52.512;13.300;2024-03-02T03:38:05;52.03;;;31.57;;
28245;SDS011;15510;52.512;13.300;2024-03-02T03:40:31;55.77;;;33.70;;
28245;SDS011;15510;52.512;13.300;2024-03-02T03:42:57;53.17;;;32.13;;
28245;SDS011;15510;52.512;13.300;2024-03-02T03:45:23;49.13;;;31.57;;
28245;SDS011;15510;52.512;13.300;2024-03-02T03:47:51;53.28;;;31.38;;
28245;SDS011;15510;52.512;13.300;2024-03-02T03:50:17;50.73;;;31.50;;
28245;SDS011;15510;52.512;13.300;2024-03-02T03:52:43;53.67;;;32.50;;
28245;SDS011;15510;52.512;13.300;2024-03-02T03:55:08;53.17;;;31.30;;
28245;SDS011;15510;52.512;13.300;2024-03-02T03:57:35;49.30;;;30.33;;
28245;SDS011;15510;52.512;13.300;2024-03-02T04:00:01;51.23;;;31.67;;
28245;SDS011;15510;52.512;13.300;2024-03-02T04:02:37;49.57;;;29.53;;
28245;SDS011;15510;52.512;13.300;2024-03-02T04:05:03;49.70;;;31.07;;
28245;SDS011;15510;52.512;13.300;2024-03-02T04:07:34;47.27;;;29.80;;
28245;SDS011;15510;52.512;13.300;2024-03-02T04:10:05;46.60;;;29.00;;
28245;SDS011;15510;52.512;13.300;2024-03-02T04:12:33;51.30;;;31.50;;
28245;SDS011;15510;52.512;13.300;2024-03-02T04:15:00;46.37;;;29.30;;
28245;SDS011;15510;52.512;13.300;2024-03-02T04:17:27;45.27;;;30.30;;
28245;SDS011;15510;52.512;13.300;2024-03-02T04:19:52;49.03;;;28.30;;
28245;SDS011;15510;52.512;13.300;2024-03-02T04:22:18;49.10;;;27.97;;
28245;SDS011;15510;52.512;13.300;2024-03-02T04:24:44;44.70;;;28.13;;
28245;SDS011;15510;52.512;13.300;2024-03-02T04:27:09;46.13;;;29.40;;
28245;SDS011;15510;52.512;13.300;2024-03-02T04:29:35;48.90;;;29.37;;
28245;SDS011;15510;52.512;13.300;2024-03-02T04:32:01;47.77;;;29.40;;
28245;SDS011;15510;52.512;13.300;2024-03-02T04:34:26;44.70;;;27.87;;
28245;SDS011;15510;52.512;13.300;2024-03-02T04:36:52;41.93;;;28.13;;
28245;SDS011;15510;52.512;13.300;2024-03-02T04:39:18;45.23;;;27.97;;
28245;SDS011;15510;52.512;13.300;2024-03-02T04:41:43;47.27;;;28.60;;
28245;SDS011;15510;52.512;13.300;2024-03-02T04:44:09;46.33;;;28.77;;
28245;SDS011;15510;52.512;13.300;2024-03-02T04:46:35;45.80;;;27.63;;
28245;SDS011;15510;52.512;13.300;2024-03-02T04:49:00;46.67;;;28.43;;
28245;SDS011;15510;52.512;13.300;2024-03-02T04:51:26;43.40;;;25.83;;
28245;SDS011;15510;52.512;13.300;2024-03-02T04:53:52;43.53;;;27.43;;
28245;SDS011;15510;52.512;13.300;2024-03-02T04:56:17;43.63;;;27.23;;
28245;SDS011;15510;52.512;13.300;2024-03-02T04:59:02;43.57;;;25.97;;
28245;SDS011;15510;52.512;13.300;2024-03-02T05:01:28;44.50;;;28.77;;
28245;SDS011;15510;52.512;13.300;2024-03-02T05:03:54;42.23;;;27.33;;
28245;SDS011;15510;52.512;13.300;2024-03-02T05:06:20;42.00;;;26.93;;
28245;SDS011;15510;52.512;13.300;2024-03-02T05:08:45;45.13;;;27.17;;
28245;SDS011;15510;52.512;13.300;2024-03-02T05:11:13;45.70;;;27.40;;
28245;SDS011;15510;52.512;13.300;2024-03-02T05:14:04;44.27;;;27.63;;
28245;SDS011;15510;52.512;13.300;2024-03-02T05:16:36;45.60;;;27.13;;
28245;SDS011;15510;52.512;13.300;2024-03-02T05:19:06;40.30;;;27.53;;
28245;SDS011;15510;52.512;13.300;2024-03-02T05:21:33;41.27;;;27.23;;
28245;SDS011;15510;52.512;13.300;2024-03-02T05:23:59;42.60;;;26.73;;
28245;SDS011;15510;52.512;13.300;2024-03-02T05:26:25;45.67;;;28.57;;
28245;SDS011;15510;52.512;13.300;2024-03-02T05:28:52;46.10;;;27.33;;
28245;SDS011;15510;52.512;13.300;2024-03-02T05:31:18;45.67;;;28.23;;
28245;SDS011;15510;52.512;13.300;2024-03-02T05:33:43;47.50;;;28.20;;
28245;SDS011;15510;52.512;13.300;2024-03-02T05:36:09;50.20;;;31.33;;
28245;SDS011;15510;52.512;13.300;2024-03-02T05:38:35;40.37;;;26.90;;
28245;SDS011;15510;52.512;13.300;2024-03-02T05:41:01;43.90;;;28.87;;
28245;SDS011;15510;52.512;13.300;2024-03-02T05:43:28;47.03;;;28.80;;
28245;SDS011;15510;52.512;13.300;2024-03-02T05:45:54;43.10;;;28.30;;
28245;SDS011;15510;52.512;13.300;2024-03-02T05:48:19;47.10;;;28.60;;
28245;SDS011;15510;52.512;13.300;2024-03-02T05:50:48;43.60;;;27.93;;
28245;SDS011;15510;52.512;13.300;2024-03-02T05:53:13;50.77;;;29.23;;
28245;SDS011;15510;52.512;13.300;2024-03-02T05:55:43;45.10;;;29.63;;
28245;SDS011;15510;52.512;13.300;2024-03-02T05:58:10;51.40;;;29.63;;
28245;SDS011;15510;52.512;13.300;2024-03-02T06:00:47;46.73;;;28.13;;
28245;SDS011;15510;52.512;13.300;2024-03-02T06:03:13;47.40;;;29.57;;
28245;SDS011;15510;52.512;13.300;2024-03-02T06:05:39;48.03;;;30.37;;
28245;SDS011;15510;52.512;13.300;2024-03-02T06:08:07;48.97;;;30.20;;
28245;SDS011;15510;52.512;13.300;2024-03-02T06:10:32;47.40;;;27.80;;
28245;SDS011;15510;52.512;13.300;2024-03-02T06:12:58;49.27;;;29.37;;
28245;SDS011;15510;52.512;13.300;2024-03-02T06:15:24;51.67;;;29.63;;
28245;SDS011;15510;52.512;13.300;2024-03-02T06:17:50;51.63;;;29.27;;
28245;SDS011;15510;52.512;13.300;2024-03-02T06:20:16;49.83;;;29.90;;
28245;SDS011;15510;52.512;13.300;2024-03-02T06:22:42;48.73;;;29.67;;
28245;SDS011;15510;52.512;13.300;2024-03-02T06:25:07;46.93;;;29.63;;
28245;SDS011;15510;52.512;13.300;2024-03-02T06:27:33;51.70;;;30.03;;
28245;SDS011;15510;52.512;13.300;2024-03-02T06:29:59;53.07;;;29.93;;
28245;SDS011;15510;52.512;13.300;2024-03-02T06:32:25;54.23;;;30.50;;
28245;SDS011;15510;52.512;13.300;2024-03-02T06:34:51;47.70;;;28.83;;
28245;SDS011;15510;52.512;13.300;2024-03-02T06:37:16;49.50;;;27.70;;
28245;SDS011;15510;52.512;13.300;2024-03-02T06:39:43;48.70;;;28.43;;
28245;SDS011;15510;52.512;13.300;2024-03-02T06:42:09;50.63;;;30.37;;
28245;SDS011;15510;52.512;13.300;2024-03-02T06:44:34;54.47;;;29.57;;
28245;SDS011;15510;52.512;13.300;2024-03-02T06:47:00;48.00;;;29.03;;
28245;SDS011;15510;52.512;13.300;2024-03-02T06:49:26;49.20;;;28.43;;
28245;SDS011;15510;52.512;13.300;2024-03-02T06:51:51;53.97;;;29.70;;
28245;SDS011;15510;52.512;13.300;2024-03-02T06:54:17;48.03;;;28.90;;
28245;SDS011;15510;52.512;13.300;2024-03-02T06:56:45;47.13;;;28.77;;
28245;SDS011;15510;52.512;13.300;2024-03-02T06:59:11;52.07;;;29.13;;
28245;SDS011;15510;52.512;13.300;2024-03-02T07:01:37;45.20;;;28.20;;
28245;SDS011;15510;52.512;13.300;2024-03-02T07:04:03;50.63;;;30.60;;
28245;SDS011;15510;52.512;13.300;2024-03-02T07:06:31;53.57;;;29.90;;
28245;SDS011;15510;52.512;13.300;2024-03-02T07:08:57;51.40;;;29.40;;
28245;SDS011;15510;52.512;13.300;2024-03-02T07:11:23;44.77;;;29.10;;
28245;SDS011;15510;52.512;13.300;2024-03-02T07:13:48;47.43;;;28.47;;
28245;SDS011;15510;52.512;13.300;2024-03-02T07:16:14;50.13;;;28.23;;
28245;SDS011;15510;52.512;13.300;2024-03-02T07:18:46;45.60;;;29.03;;
28245;SDS011;15510;52.512;13.300;2024-03-02T07:21:16;43.97;;;27.73;;
28245;SDS011;15510;52.512;13.300;2024-03-02T07:23:43;45.80;;;27.40;;
28245;SDS011;15510;52.512;13.300;2024-03-02T07:26:08;46.70;;;27.97;;
28245;SDS011;15510;52.512;13.300;2024-03-02T07:28:35;52.30;;;29.17;;
28245;SDS011;15510;52.512;13.300;2024-03-02T07:33:31;51.27;;;28.30;;
28245;SDS011;15510;52.512;13.300;2024-03-02T07:35:59;53.00;;;28.60;;
28245;SDS011;15510;52.512;13.300;2024-03-02T07:38:29;50.73;;;29.87;;
28245;SDS011;15510;52.512;13.300;2024-03-02T07:40:55;47.27;;;28.67;;
28245;SDS011;15510;52.512;13.300;2024-03-02T07:43:21;50.03;;;30.17;;
28245;SDS011;15510;52.512;13.300;2024-03-02T07:45:47;47.00;;;28.70;;
28245;SDS011;15510;52.512;13.300;2024-03-02T07:48:14;51.43;;;30.07;;
28245;SDS011;15510;52.512;13.300;2024-03-02T07:50:42;50.67;;;29.60;;
28245;SDS011;15510;52.512;13.300;2024-03-02T07:53:10;45.27;;;28.57;;
28245;SDS011;15510;52.512;13.300;2024-03-02T07:55:36;50.37;;;30.17;;
28245;SDS011;15510;52.512;13.300;2024-03-02T07:58:02;48.03;;;28.13;;
28245;SDS011;15510;52.512;13.300;2024-03-02T08:00:28;49.50;;;29.23;;
28245;SDS011;15510;52.512;13.300;2024-03-02T08:02:57;49.03;;;28.90;;
28245;SDS011;15510;52.512;13.300;2024-03-02T08:05:29;46.70;;;29.37;;
28245;SDS011;15510;52.512;13.300;2024-03-02T08:07:55;45.90;;;29.30;;
28245;SDS011;15510;52.512;13.300;2024-03-02T08:10:27;49.37;;;27.53;;
28245;SDS011;15510;52.512;13.300;2024-03-02T08:12:55;51.67;;;28.70;;
28245;SDS011;15510;52.512;13.300;2024-03-02T08:15:24;46.17;;;26.53;;
28245;SDS011;15510;52.512;13.300;2024-03-02T08:17:52;49.60;;;26.93;;
28245;SDS011;15510;52.512;13.300;2024-03-02T08:20:18;41.57;;;25.93;;
28245;SDS011;15510;52.512;13.300;2024-03-02T08:22:44;48.50;;;26.20;;
28245;SDS011;15510;52.512;13.300;2024-03-02T08:25:10;46.43;;;27.10;;
28245;SDS011;15510;52.512;13.300;2024-03-02T08:27:39;46.60;;;26.87;;
28245;SDS011;15510;52.512;13.300;2024-03-02T08:30:05;45.37;;;26.87;;
28245;SDS011;15510;52.512;13.300;2024-03-02T08:32:35;47.43;;;26.87;;
28245;SDS011;15510;52.512;13.300;2024-03-02T08:35:01;43.37;;;26.10;;
28245;SDS011;15510;52.512;13.300;2024-03-02T08:37:27;42.53;;;26.60;;
28245;SDS011;15510;52.512;13.300;2024-03-02T08:39:53;48.53;;;27.43;;
28245;SDS011;15510;52.512;13.300;2024-03-02T08:42:19;51.80;;;28.00;;
28245;SDS011;15510;52.512;13.300;2024-03-02T08:44:45;40.87;;;26.60;;
28245;SDS011;15510;52.512;13.300;2024-03-02T08:47:10;44.13;;;26.60;;
28245;SDS011;15510;52.512;13.300;2024-03-02T08:49:36;47.17;;;26.67;;
28245;SDS011;15510;52.512;13.300;2024-03-02T08:52:02;47.93;;;27.63;;
28245;SDS011;15510;52.512;13.300;2024-03-02T08:54:29;45.70;;;26.77;;
28245;SDS011;15510;52.512;13.300;2024-03-02T08:56:58;42.43;;;27.13;;
28245;SDS011;15510;52.512;13.300;2024-03-02T08:59:25;44.97;;;27.97;;
28245;SDS011;15510;52.512;13.300;2024-03-02T09:01:52;42.38;;;28.27;;
28245;SDS011;15510;52.512;13.300;2024-03-02T09:04:18;44.47;;;27.47;;
28245;SDS011;15510;52.512;13.300;2024-03-02T09:06:44;46.70;;;28.63;;
28245;SDS011;15510;52.512;13.300;2024-03-02T09:09:10;44.73;;;24.73;;
28245;SDS011;15510;52.512;13.300;2024-03-02T09:11:36;43.67;;;27.90;;
28245;SDS011;15510;52.512;13.300;2024-03-02T09:14:02;46.87;;;28.33;;
28245;SDS011;15510;52.512;13.300;2024-03-02T09:16:35;45.60;;;26.87;;
28245;SDS011;15510;52.512;13.300;2024-03-02T09:19:01;43.87;;;27.17;;
28245;SDS011;15510;52.512;13.300;2024-03-02T09:21:27;43.07;;;26.43;;
28245;SDS011;15510;52.512;13.300;2024-03-02T09:24:00;45.83;;;27.50;;
28245;SDS011;15510;52.512;13.300;2024-03-02T09:26:27;44.23;;;26.93;;
28245;SDS011;15510;52.512;13.300;2024-03-02T09:28:53;46.27;;;27.73;;
28245;SDS011;15510;52.512;13.300;2024-03-02T09:31:19;46.00;;;27.00;;
28245;SDS011;15510;52.512;13.300;2024-03-02T09:33:45;43.63;;;27.10;;
28245;SDS011;15510;52.512;13.300;2024-03-02T09:36:18;45.37;;;26.30;;
28245;SDS011;15510;52.512;13.300;2024-03-02T09:38:45;45.50;;;26.37;;
28245;SDS011;15510;52.512;13.300;2024-03-02T09:41:14;43.40;;;25.47;;
28245;SDS011;15510;52.512;13.300;2024-03-02T09:43:40;42.53;;;25.20;;
28245;SDS011;15510;52.512;13.300;2024-03-02T09:46:08;40.87;;;25.43;;
28245;SDS011;15510;52.512;13.300;2024-03-02T09:48:35;43.40;;;27.07;;
28245;SDS011;15510;52.512;13.300;2024-03-02T09:51:00;43.30;;;24.50;;
28245;SDS011;15510;52.512;13.300;2024-03-02T09:53:32;38.33;;;23.67;;
28245;SDS011;15510;52.512;13.300;2024-03-02T09:55:59;36.80;;;23.90;;
28245;SDS011;15510;52.512;13.300;2024-03-02T09:58:26;39.47;;;23.52;;
28245;SDS011;15510;52.512;13.300;2024-03-02T10:00:51;39.50;;;22.83;;
28245;SDS011;15510;52.512;13.300;2024-03-02T10:03:18;35.53;;;23.88;;
28245;SDS011;15510;52.512;13.300;2024-03-02T10:05:44;39.17;;;23.40;;
28245;SDS011;15510;52.512;13.300;2024-03-02T10:08:10;38.50;;;23.33;;
28245;SDS011;15510;52.512;13.300;2024-03-02T10:10:39;37.45;;;21.88;;
28245;SDS011;15510;52.512;13.300;2024-03-02T10:13:08;39.78;;;22.08;;
28245;SDS011;15510;52.512;13.300;2024-03-02T10:15:36;34.85;;;22.08;;
28245;SDS011;15510;52.512;13.300;2024-03-02T10:18:04;37.53;;;22.13;;
28245;SDS011;15510;52.512;13.300;2024-03-02T10:20:30;37.83;;;22.42;;
28245;SDS011;15510;52.512;13.300;2024-03-02T10:23:11;31.33;;;19.20;;
28245;SDS011;15510;52.512;13.300;2024-03-02T10:25:42;32.35;;;20.45;;
28245;SDS011;15510;52.512;13.300;2024-03-02T10:28:08;30.75;;;21.30;;
28245;SDS011;15510;52.512;13.300;2024-03-02T10:30:34;33.40;;;21.75;;
28245;SDS011;15510;52.512;13.300;2024-03-02T10:33:01;35.50;;;20.20;;
28245;SDS011;15510;52.512;13.300;2024-03-02T10:35:27;30.60;;;19.77;;
28245;SDS011;15510;52.512;13.300;2024-03-02T10:37:54;27.40;;;18.98;;
28245;SDS011;15510;52.512;13.300;2024-03-02T10:40:24;31.70;;;20.67;;
28245;SDS011;15510;52.512;13.300;2024-03-02T10:42:50;29.55;;;19.42;;
28245;SDS011;15510;52.512;13.300;2024-03-02T10:45:19;29.25;;;19.00;;
28245;SDS011;15510;52.512;13.300;2024-03-02T10:47:49;29.88;;;18.70;;
28245;SDS011;15510;52.512;13.300;2024-03-02T10:50:15;31.08;;;18.95;;
28245;SDS011;15510;52.512;13.300;2024-03-02T10:52:42;26.02;;;17.08;;
28245;SDS011;15510;52.512;13.300;2024-03-02T10:55:11;25.92;;;17.17;;
28245;SDS011;15510;52.512;13.300;2024-03-02T10:57:50;32.92;;;16.63;;
28245;SDS011;15510;52.512;13.300;2024-03-02T11:00:19;27.27;;;17.33;;
28245;SDS011;15510;52.512;13.300;2024-03-02T11:02:51;24.95;;;16.25;;
28245;SDS011;15510;52.512;13.300;2024-03-02T11:05:23;24.42;;;16.00;;
28245;SDS011;15510;52.512;13.300;2024-03-02T11:08:02;24.48;;;15.73;;
28245;SDS011;15510;52.512;13.300;2024-03-02T11:10:34;21.38;;;14.65;;
28245;SDS011;15510;52.512;13.300;2024-03-02T11:13:05;26.13;;;15.80;;
28245;SDS011;15510;52.512;13.300;2024-03-02T11:15:34;23.55;;;14.98;;
28245;SDS011;15510;52.512;13.300;2024-03-02T11:18:04;24.70;;;15.43;;
28245;SDS011;15510;52.512;13.300;2024-03-02T11:20:40;22.95;;;15.60;;
28245;SDS011;15510;52.512;13.300;2024-03-02T11:23:07;21.25;;;14.93;;
28245;SDS011;15510;52.512;13.300;2024-03-02T11:25:34;21.77;;;14.52;;
28245;SDS011;15510;52.512;13.300;2024-03-02T11:28:04;26.45;;;16.70;;
28245;SDS011;15510;52.512;13.300;2024-03-02T11:33:06;22.42;;;14.82;;
28245;SDS011;15510;52.512;13.300;2024-03-02T11:35:33;23.30;;;14.40;;
28245;SDS011;15510;52.512;13.300;2024-03-02T11:38:06;23.98;;;14.43;;
28245;SDS011;15510;52.512;13.300;2024-03-02T11:40:32;20.75;;;13.80;;
28245;SDS011;15510;52.512;13.300;2024-03-02T11:43:01;21.63;;;14.30;;
28245;SDS011;15510;52.512;13.300;2024-03-02T11:45:27;19.85;;;14.48;;
28245;SDS011;15510;52.512;13.300;2024-03-02T11:47:54;23.88;;;15.43;;
28245;SDS011;15510;52.512;13.300;2024-03-02T11:52:59;24.50;;;15.18;;
28245;SDS011;15510;52.512;13.300;2024-03-02T11:55:25;23.52;;;14.68;;
28245;SDS011;15510;52.512;13.300;2024-03-02T11:57:54;21.30;;;14.23;;
28245;SDS011;15510;52.512;13.300;2024-03-02T12:00:20;26.00;;;15.82;;
28245;SDS011;15510;52.512;13.300;2024-03-02T12:03:08;21.83;;;14.93;;
28245;SDS011;15510;52.512;13.300;2024-03-02T12:05:33;20.88;;;13.90;;
28245;SDS011;15510;52.512;13.300;2024-03-02T12:08:01;20.25;;;14.18;;
28245;SDS011;15510;52.512;13.300;2024-03-02T12:10:29;22.83;;;14.93;;
28245;SDS011;15510;52.512;13.300;2024-03-02T12:13:01;23.13;;;14.60;;
28245;SDS011;15510;52.512;13.300;2024-03-02T12:15:29;25.70;;;15.73;;
28245;SDS011;15510;52.512;13.300;2024-03-02T12:18:00;32.65;;;15.70;;
28245;SDS011;15510;52.512;13.300;2024-03-02T12:20:27;25.90;;;16.40;;
28245;SDS011;15510;52.512;13.300;2024-03-02T12:22:54;24.20;;;16.33;;
28245;SDS011;15510;52.512;13.300;2024-03-02T12:25:23;28.02;;;15.60;;
28245;SDS011;15510;52.512;13.300;2024-03-02T12:27:54;21.60;;;15.65;;
28245;SDS011;15510;52.512;13.300;2024-03-02T12:30:21;24.73;;;15.25;;
28245;SDS011;15510;52.512;13.300;2024-03-02T12:32:50;20.73;;;14.30;;
28245;SDS011;15510;52.512;13.300;2024-03-02T12:35:17;27.05;;;16.33;;
28245;SDS011;15510;52.512;13.300;2024-03-02T12:40:14;24.85;;;15.00;;
28245;SDS011;15510;52.512;13.300;2024-03-02T12:42:42;23.05;;;14.75;;
28245;SDS011;15510;52.512;13.300;2024-03-02T12:45:08;24.95;;;14.85;;
28245;SDS011;15510;52.512;13.300;2024-03-02T12:47:35;24.67;;;15.55;;
28245;SDS011;15510;52.512;13.300;2024-03-02T12:50:04;22.23;;;15.25;;
28245;SDS011;15510;52.512;13.300;2024-03-02T12:52:31;23.48;;;15.90;;
28245;SDS011;15510;52.512;13.300;2024-03-02T12:55:00;24.80;;;16.10;;
28245;SDS011;15510;52.512;13.300;2024-03-02T12:57:29;23.98;;;15.30;;
28245;SDS011;15510;52.512;13.300;2024-03-02T13:02:28;17.65;;;12.70;;
28245;SDS011;15510;52.512;13.300;2024-03-02T13:04:57;18.80;;;12.57;;
28245;SDS011;15510;52.512;13.300;2024-03-02T13:07:24;17.70;;;11.85;;
28245;SDS011;15510;52.512;13.300;2024-03-02T13:09:50;16.73;;;11.88;;
28245;SDS011;15510;52.512;13.300;2024-03-02T13:12:17;17.55;;;12.57;;
28245;SDS011;15510;52.512;13.300;2024-03-02T13:14:51;16.58;;;11.95;;
28245;SDS011;15510;52.512;13.300;2024-03-02T13:17:18;16.83;;;11.60;;
28245;SDS011;15510;52.512;13.300;2024-03-02T13:19:50;17.95;;;11.98;;
28245;SDS011;15510;52.512;13.300;2024-03-02T13:22:23;17.05;;;11.77;;
28245;SDS011;15510;52.512;13.300;2024-03-02T13:24:55;20.15;;;12.63;;
28245;SDS011;15510;52.512;13.300;2024-03-02T13:27:22;22.88;;;13.80;;
28245;SDS011;15510;52.512;13.300;2024-03-02T13:29:47;20.63;;;13.10;;
28245;SDS011;15510;52.512;13.300;2024-03-02T13:32:14;19.67;;;14.07;;
28245;SDS011;15510;52.512;13.300;2024-03-02T13:34:40;17.98;;;13.05;;
28245;SDS011;15510;52.512;13.300;2024-03-02T13:37:06;19.55;;;13.00;;
28245;SDS011;15510;52.512;13.300;2024-03-02T13:39:32;21.00;;;13.07;;
28245;SDS011;15510;52.512;13.300;2024-03-02T13:42:09;18.45;;;12.70;;
28245;SDS011;15510;52.512;13.300;2024-03-02T13:44:36;17.92;;;12.73;;
28245;SDS011;15510;52.512;13.300;2024-03-02T13:47:02;28.92;;;19.58;;
28245;SDS011;15510;52.512;13.300;2024-03-02T13:49:28;19.60;;;13.50;;
28245;SDS011;15510;52.512;13.300;2024-03-02T13:52:04;18.63;;;11.80;;
28245;SDS011;15510;52.512;13.300;2024-03-02T13:54:39;19.77;;;13.13;;
28245;SDS011;15510;52.512;13.300;2024-03-02T13:57:06;17.02;;;11.50;;
28245;SDS011;15510;52.512;13.300;2024-03-02T13:59:36;19.02;;;12.20;;
28245;SDS011;15510;52.512;13.300;2024-03-02T14:02:02;21.08;;;13.10;;
28245;SDS011;15510;52.512;13.300;2024-03-02T14:04:35;19.35;;;13.65;;
28245;SDS011;15510;52.512;13.300;2024-03-02T14:07:02;21.92;;;13.80;;
28245;SDS011;15510;52.512;13.300;2024-03-02T14:09:28;20.45;;;13.52;;
28245;SDS011;15510;52.512;13.300;2024-03-02T14:11:55;17.88;;;13.07;;
28245;SDS011;15510;52.512;13.300;2024-03-02T14:14:21;19.85;;;13.40;;
28245;SDS011;15510;52.512;13.300;2024-03-02T14:16:48;19.02;;;12.95;;
28245;SDS011;15510;52.512;13.300;2024-03-02T14:19:14;15.13;;;10.52;;
28245;SDS011;15510;52.512;13.300;2024-03-02T14:21:40;19.38;;;12.07;;
28245;SDS011;15510;52.512;13.300;2024-03-02T14:24:06;18.95;;;12.38;;
28245;SDS011;15510;52.512;13.300;2024-03-02T14:26:35;16.58;;;11.20;;
28245;SDS011;15510;52.512;13.300;2024-03-02T14:29:04;20.85;;;12.88;;
28245;SDS011;15510;52.512;13.300;2024-03-02T14:31:31;19.42;;;10.93;;
28245;SDS011;15510;52.512;13.300;2024-03-02T14:33:57;16.40;;;10.48;;